createdAt,value
2017-11-17T00:00:16.913Z,7.98
2017-11-17T00:01:16.927Z,8.06
2017-11-17T00:02:16.943Z,8.16
2017-11-17T00:03:16.957Z,8.19
2017-11-17T00:04:16.969Z,8.10
2017-11-17T00:05:16.988Z,8.15
2017-11-17T00:06:17.004Z,7.91
2017-11-17T00:07:17.031Z,7.90
2017-11-17T00:08:17.033Z,7.95
2017-11-17T00:09:17.049Z,8.00
2017-11-17T00:10:17.061Z,7.95
2017-11-17T00:11:17.077Z,8.03
2017-11-17T00:12:17.092Z,8.20
2017-11-17T00:13:17.108Z,8.08
2017-11-17T00:14:17.122Z,7.83
2017-11-17T00:15:17.143Z,7.91
2017-11-17T00:16:17.152Z,8.03
2017-11-17T00:17:17.168Z,7.77
2017-11-17T00:18:17.181Z,7.88
2017-11-17T00:19:17.197Z,8.18
2017-11-17T00:20:17.221Z,8.45
2017-11-17T00:21:17.227Z,8.26
2017-11-17T00:22:17.243Z,8.24
2017-11-17T00:23:17.262Z,8.30
2017-11-17T00:24:17.276Z,8.20
2017-11-17T00:25:17.290Z,8.38
2017-11-17T00:26:17.308Z,8.41
2017-11-17T00:27:17.320Z,8.67
2017-11-17T00:28:17.338Z,8.79
2017-11-17T00:29:17.352Z,8.69
2017-11-17T00:30:17.365Z,8.58
2017-11-17T00:31:17.382Z,8.52
2017-11-17T00:32:17.394Z,8.56
2017-11-17T00:33:17.416Z,8.63
2017-11-17T00:34:17.425Z,8.73
2017-11-17T00:35:17.443Z,8.78
2017-11-17T00:36:17.457Z,8.85
2017-11-17T00:37:17.475Z,8.82
2017-11-17T00:38:17.492Z,8.78
2017-11-17T00:39:17.503Z,8.64
2017-11-17T00:40:17.520Z,8.66
2017-11-17T00:41:17.536Z,8.69
2017-11-17T00:42:17.549Z,8.84
2017-11-17T00:43:17.564Z,8.82
2017-11-17T00:44:17.580Z,8.82
2017-11-17T00:45:17.597Z,8.88
2017-11-17T00:46:17.626Z,9.03
2017-11-17T00:47:17.628Z,9.00
2017-11-17T00:48:17.659Z,9.03
2017-11-17T00:49:17.658Z,9.03
2017-11-17T00:50:17.679Z,9.13
2017-11-17T00:51:17.689Z,9.10
2017-11-17T00:52:17.705Z,9.06
2017-11-17T00:53:17.721Z,9.19
2017-11-17T00:54:17.743Z,9.06
2017-11-17T00:55:17.751Z,8.97
2017-11-17T00:56:17.789Z,8.95
2017-11-17T00:57:17.784Z,8.70
2017-11-17T00:58:17.797Z,8.56
2017-11-17T00:59:17.814Z,8.61
2017-11-17T01:00:17.829Z,8.63
2017-11-17T01:01:17.845Z,8.76
2017-11-17T01:02:17.860Z,8.48
2017-11-17T01:03:17.873Z,8.74
2017-11-17T01:04:17.888Z,8.76
2017-11-17T01:05:17.908Z,8.73
2017-11-17T01:06:17.918Z,8.79
2017-11-17T01:07:17.940Z,8.85
2017-11-17T01:08:17.960Z,8.91
2017-11-17T01:09:17.971Z,9.10
2017-11-17T01:10:17.983Z,9.10
2017-11-17T01:11:17.997Z,9.14
2017-11-17T01:12:18.017Z,9.22
2017-11-17T01:13:18.029Z,9.22
2017-11-17T01:14:18.046Z,9.25
2017-11-17T01:15:18.061Z,9.28
2017-11-17T01:16:18.079Z,9.23
2017-11-17T01:17:18.091Z,9.31
2017-11-17T01:18:18.105Z,9.23
2017-11-17T01:19:18.126Z,9.22
2017-11-17T01:20:18.141Z,9.31
2017-11-17T01:21:18.156Z,9.34
2017-11-17T01:22:18.169Z,9.41
2017-11-17T01:23:18.188Z,9.47
2017-11-17T01:24:18.201Z,9.48
2017-11-17T01:25:18.218Z,9.48
2017-11-17T01:26:18.233Z,9.50
2017-11-17T01:27:18.248Z,9.50
2017-11-17T01:28:18.265Z,9.55
2017-11-17T01:29:18.296Z,9.51
2017-11-17T01:30:18.296Z,9.50
2017-11-17T01:31:18.309Z,9.50
2017-11-17T01:32:18.325Z,9.48
2017-11-17T01:33:18.343Z,9.59
2017-11-17T01:34:18.358Z,9.62
2017-11-17T01:35:18.374Z,9.72
2017-11-17T01:36:18.391Z,9.76
2017-11-17T01:37:18.405Z,9.66
2017-11-17T01:38:18.420Z,9.59
2017-11-17T01:39:18.442Z,9.56
2017-11-17T01:40:18.454Z,9.61
2017-11-17T01:41:18.476Z,9.61
2017-11-17T01:42:18.485Z,9.74
2017-11-17T01:43:18.502Z,9.61
2017-11-17T01:44:18.519Z,9.73
2017-11-17T01:45:18.534Z,9.72
2017-11-17T01:46:18.548Z,9.74
2017-11-17T01:47:18.565Z,9.74
2017-11-17T01:48:18.586Z,9.73
2017-11-17T01:49:18.599Z,9.73
2017-11-17T01:50:18.616Z,9.82
2017-11-17T01:51:18.642Z,9.86
2017-11-17T01:52:18.648Z,9.79
2017-11-17T01:53:18.660Z,9.86
2017-11-17T01:54:18.679Z,9.84
2017-11-17T01:55:18.694Z,9.84
2017-11-17T01:56:18.709Z,9.76
2017-11-17T01:57:18.726Z,9.84
2017-11-17T01:58:18.740Z,9.80
2017-11-17T01:59:18.756Z,9.82
2017-11-17T02:00:18.774Z,9.86
2017-11-17T02:01:18.787Z,9.76
2017-11-17T02:02:18.815Z,9.89
2017-11-17T02:03:18.821Z,9.83
2017-11-17T02:04:18.838Z,9.92
2017-11-17T02:05:18.853Z,9.91
2017-11-17T02:06:18.867Z,9.84
2017-11-17T02:07:18.883Z,9.82
2017-11-17T02:08:18.899Z,9.86
2017-11-17T02:09:18.919Z,9.87
2017-11-17T02:10:18.931Z,9.89
2017-11-17T02:11:18.949Z,9.86
2017-11-17T02:12:18.963Z,9.66
2017-11-17T02:13:18.979Z,9.64
2017-11-17T02:14:18.997Z,9.66
2017-11-17T02:15:19.011Z,9.56
2017-11-17T02:16:19.025Z,9.40
2017-11-17T02:17:19.044Z,9.58
2017-11-17T02:18:19.062Z,9.66
2017-11-17T02:19:19.074Z,9.64
2017-11-17T02:20:19.092Z,9.66
2017-11-17T02:21:19.107Z,9.59
2017-11-17T02:22:19.123Z,9.39
2017-11-17T02:23:19.140Z,9.39
2017-11-17T02:24:19.154Z,9.39
2017-11-17T02:25:19.169Z,9.36
2017-11-17T02:26:19.186Z,9.40
2017-11-17T02:27:19.201Z,9.31
2017-11-17T02:28:19.219Z,9.32
2017-11-17T02:29:19.235Z,9.32
2017-11-17T02:30:19.249Z,9.36
2017-11-17T02:31:19.265Z,9.32
2017-11-17T02:32:19.284Z,9.37
2017-11-17T02:33:19.312Z,9.29
2017-11-17T02:34:19.312Z,9.39
2017-11-17T02:35:19.333Z,9.40
2017-11-17T02:36:19.344Z,9.41
2017-11-17T02:37:19.362Z,9.59
2017-11-17T02:38:19.378Z,9.62
2017-11-17T02:39:19.392Z,9.59
2017-11-17T02:40:19.461Z,9.61
2017-11-17T02:41:19.427Z,9.64
2017-11-17T02:42:19.441Z,9.72
2017-11-17T02:43:19.455Z,9.77
2017-11-17T02:44:19.474Z,9.77
2017-11-17T02:45:19.489Z,9.82
2017-11-17T02:46:19.505Z,9.74
2017-11-17T02:47:19.521Z,9.61
2017-11-17T02:48:19.536Z,9.50
2017-11-17T02:49:19.557Z,9.65
2017-11-17T02:50:19.568Z,9.76
2017-11-17T02:51:19.585Z,9.77
2017-11-17T02:52:19.603Z,9.80
2017-11-17T02:53:19.619Z,9.84
2017-11-17T02:54:19.631Z,9.91
2017-11-17T02:55:19.648Z,9.94
2017-11-17T02:56:19.666Z,9.91
2017-11-17T02:57:19.682Z,9.89
2017-11-17T02:58:19.695Z,9.92
2017-11-17T02:59:19.713Z,9.91
2017-11-17T03:00:19.728Z,9.87
2017-11-17T03:01:19.745Z,9.95
2017-11-17T03:02:19.763Z,9.98
2017-11-17T03:03:19.776Z,9.97
2017-11-17T03:04:19.792Z,9.83
2017-11-17T03:05:19.822Z,9.92
2017-11-17T03:06:19.824Z,9.94
2017-11-17T03:07:19.846Z,9.94
2017-11-17T03:08:19.869Z,10.02
2017-11-17T03:09:19.872Z,9.94
2017-11-17T03:10:19.890Z,9.84
2017-11-17T03:11:19.904Z,9.98
2017-11-17T03:12:19.927Z,9.99
2017-11-17T03:13:19.937Z,9.89
2017-11-17T03:14:19.952Z,9.92
2017-11-17T03:15:19.969Z,9.84
2017-11-17T03:16:19.987Z,9.94
2017-11-17T03:17:20.002Z,9.87
2017-11-17T03:18:20.016Z,9.83
2017-11-17T03:19:20.033Z,9.80
2017-11-17T03:20:20.125Z,9.79
2017-11-17T03:21:20.065Z,9.89
2017-11-17T03:22:20.081Z,9.86
2017-11-17T03:23:20.098Z,9.95
2017-11-17T03:24:20.112Z,9.86
2017-11-17T03:25:20.130Z,9.89
2017-11-17T03:26:20.145Z,9.76
2017-11-17T03:27:20.175Z,9.84
2017-11-17T03:28:20.182Z,9.97
2017-11-17T03:29:20.197Z,9.89
2017-11-17T03:30:20.228Z,9.91
2017-11-17T03:31:20.226Z,9.84
2017-11-17T03:32:20.243Z,9.89
2017-11-17T03:33:20.259Z,9.92
2017-11-17T03:34:20.274Z,9.87
2017-11-17T03:35:20.291Z,9.83
2017-11-17T03:36:20.307Z,9.82
2017-11-17T03:37:20.321Z,9.76
2017-11-17T03:38:20.335Z,9.74
2017-11-17T03:39:20.358Z,9.80
2017-11-17T03:40:20.380Z,9.77
2017-11-17T03:41:20.389Z,9.80
2017-11-17T03:42:20.403Z,9.79
2017-11-17T03:43:20.420Z,9.74
2017-11-17T03:44:20.437Z,9.61
2017-11-17T03:45:20.458Z,9.54
2017-11-17T03:46:20.465Z,9.48
2017-11-17T03:47:20.481Z,9.50
2017-11-17T03:48:20.499Z,9.61
2017-11-17T03:49:20.519Z,9.62
2017-11-17T03:50:20.529Z,9.65
2017-11-17T03:51:20.547Z,9.62
2017-11-17T03:52:20.564Z,9.62
2017-11-17T03:53:20.579Z,9.62
2017-11-17T03:54:20.593Z,9.54
2017-11-17T03:55:20.610Z,9.56
2017-11-17T03:56:20.627Z,9.54
2017-11-17T03:57:20.646Z,9.55
2017-11-17T03:58:20.660Z,9.29
2017-11-17T03:59:20.674Z,9.22
2017-11-17T04:00:20.692Z,9.36
2017-11-17T04:01:20.705Z,9.29
2017-11-17T04:02:20.722Z,9.29
2017-11-17T04:03:20.738Z,9.28
2017-11-17T04:04:20.766Z,9.37
2017-11-17T04:05:20.770Z,9.29
2017-11-17T04:06:20.792Z,9.21
2017-11-17T04:07:20.808Z,9.04
2017-11-17T04:08:20.818Z,9.16
2017-11-17T04:09:20.851Z,9.14
2017-11-17T04:10:20.848Z,9.13
2017-11-17T04:11:20.866Z,9.21
2017-11-17T04:12:20.882Z,9.34
2017-11-17T04:13:20.898Z,9.44
2017-11-17T04:14:20.915Z,9.31
2017-11-17T04:15:20.933Z,9.22
2017-11-17T04:16:20.946Z,9.11
2017-11-17T04:17:20.962Z,8.97
2017-11-17T04:18:20.978Z,8.97
2017-11-17T04:19:20.992Z,9.10
2017-11-17T04:20:21.012Z,9.11
2017-11-17T04:21:21.026Z,9.06
2017-11-17T04:22:21.081Z,9.14
2017-11-17T04:23:21.057Z,9.19
2017-11-17T04:24:21.075Z,9.32
2017-11-17T04:25:21.092Z,9.32
2017-11-17T04:26:21.106Z,9.43
2017-11-17T04:27:21.121Z,9.31
2017-11-17T04:28:21.143Z,9.23
2017-11-17T04:29:21.152Z,9.11
2017-11-17T04:30:21.168Z,9.06
2017-11-17T04:31:21.189Z,8.89
2017-11-17T04:32:21.201Z,9.06
2017-11-17T04:33:21.217Z,9.21
2017-11-17T04:34:21.233Z,9.31
2017-11-17T04:35:21.246Z,9.32
2017-11-17T04:36:21.265Z,9.22
2017-11-17T04:37:21.277Z,9.14
2017-11-17T04:38:21.303Z,9.16
2017-11-17T04:39:21.315Z,9.14
2017-11-17T04:40:21.326Z,9.18
2017-11-17T04:41:21.344Z,9.26
2017-11-17T04:42:21.366Z,9.32
2017-11-17T04:43:21.374Z,9.40
2017-11-17T04:44:21.390Z,9.36
2017-11-17T04:45:21.406Z,9.46
2017-11-17T04:46:21.421Z,9.40
2017-11-17T04:47:21.441Z,9.41
2017-11-17T04:48:21.454Z,9.46
2017-11-17T04:49:21.469Z,9.55
2017-11-17T04:50:21.483Z,9.47
2017-11-17T04:51:21.500Z,9.54
2017-11-17T04:52:21.516Z,9.46
2017-11-17T04:53:21.531Z,9.44
2017-11-17T04:54:21.549Z,9.40
2017-11-17T04:55:21.563Z,9.18
2017-11-17T04:56:21.582Z,9.19
2017-11-17T04:57:21.594Z,9.13
2017-11-17T04:58:21.615Z,9.14
2017-11-17T04:59:21.627Z,9.11
2017-11-17T05:00:21.651Z,9.14
2017-11-17T05:01:21.663Z,9.18
2017-11-17T05:02:21.675Z,8.95
2017-11-17T05:03:21.691Z,8.81
2017-11-17T05:04:21.708Z,8.85
2017-11-17T05:05:21.723Z,8.91
2017-11-17T05:06:21.740Z,8.97
2017-11-17T05:07:21.763Z,9.14
2017-11-17T05:08:21.770Z,9.16
2017-11-17T05:09:21.786Z,9.26
2017-11-17T05:10:21.800Z,9.23
2017-11-17T05:11:21.820Z,9.36
2017-11-17T05:12:21.833Z,9.31
2017-11-17T05:13:21.851Z,9.31
2017-11-17T05:14:21.865Z,9.29
2017-11-17T05:15:21.880Z,9.22
2017-11-17T05:16:21.895Z,9.37
2017-11-17T05:17:21.912Z,9.41
2017-11-17T05:18:21.930Z,9.34
2017-11-17T05:19:21.942Z,9.31
2017-11-17T05:20:21.967Z,9.39
2017-11-17T05:21:21.974Z,9.43
2017-11-17T05:22:21.989Z,9.46
2017-11-17T05:23:22.005Z,9.40
2017-11-17T05:24:22.023Z,9.36
2017-11-17T05:25:22.039Z,9.43
2017-11-17T05:26:22.053Z,9.46
2017-11-17T05:27:22.067Z,9.55
2017-11-17T05:28:22.085Z,9.31
2017-11-17T05:29:22.100Z,9.36
2017-11-17T05:30:22.116Z,9.25
2017-11-17T05:31:22.130Z,9.18
2017-11-17T05:32:22.147Z,9.22
2017-11-17T05:33:22.165Z,9.37
2017-11-17T05:34:22.187Z,9.29
2017-11-17T05:35:22.193Z,9.37
2017-11-17T05:36:22.229Z,9.34
2017-11-17T05:37:22.228Z,9.32
2017-11-17T05:38:22.242Z,9.21
2017-11-17T05:39:22.256Z,9.23
2017-11-17T05:40:22.276Z,9.22
2017-11-17T05:41:22.291Z,9.21
2017-11-17T05:42:22.307Z,9.10
2017-11-17T05:43:22.322Z,9.11
2017-11-17T05:44:22.338Z,9.13
2017-11-17T05:45:22.355Z,9.06
2017-11-17T05:46:22.369Z,8.95
2017-11-17T05:47:22.386Z,9.00
2017-11-17T05:48:22.402Z,8.92
2017-11-17T05:49:22.415Z,8.85
2017-11-17T05:50:22.432Z,8.84
2017-11-17T05:51:22.449Z,8.95
2017-11-17T05:52:22.465Z,9.02
2017-11-17T05:53:22.480Z,8.89
2017-11-17T05:54:22.496Z,9.13
2017-11-17T05:55:22.514Z,9.22
2017-11-17T05:56:22.528Z,9.23
2017-11-17T05:57:22.542Z,9.23
2017-11-17T05:58:22.559Z,9.34
2017-11-17T05:59:22.576Z,9.32
2017-11-17T06:00:22.594Z,9.37
2017-11-17T06:01:22.608Z,9.46
2017-11-17T06:02:22.624Z,9.50
2017-11-17T06:03:22.641Z,9.46
2017-11-17T06:04:22.656Z,9.43
2017-11-17T06:05:22.679Z,9.47
2017-11-17T06:06:22.688Z,9.40
2017-11-17T06:07:22.701Z,9.46
2017-11-17T06:08:22.722Z,9.54
2017-11-17T06:09:22.734Z,9.39
2017-11-17T06:10:22.760Z,9.58
2017-11-17T06:11:22.770Z,9.55
2017-11-17T06:12:22.784Z,9.46
2017-11-17T06:13:22.799Z,9.44
2017-11-17T06:14:22.812Z,9.29
2017-11-17T06:15:22.828Z,9.26
2017-11-17T06:16:22.843Z,9.22
2017-11-17T06:17:22.861Z,9.08
2017-11-17T06:18:22.875Z,9.25
2017-11-17T06:19:22.891Z,9.22
2017-11-17T06:20:22.911Z,9.28
2017-11-17T06:21:22.925Z,9.21
2017-11-17T06:22:22.938Z,9.28
2017-11-17T06:23:22.964Z,9.16
2017-11-17T06:24:22.973Z,9.22
2017-11-17T06:25:22.985Z,9.18
2017-11-17T06:26:23.002Z,9.21
2017-11-17T06:27:23.024Z,9.25
2017-11-17T06:28:23.036Z,9.04
2017-11-17T06:29:23.051Z,8.85
2017-11-17T06:30:23.065Z,8.87
2017-11-17T06:31:23.080Z,8.79
2017-11-17T06:32:23.098Z,8.76
2017-11-17T06:33:23.116Z,8.71
2017-11-17T06:34:23.130Z,8.84
2017-11-17T06:35:23.144Z,8.70
2017-11-17T06:36:23.159Z,8.71
2017-11-17T06:37:23.185Z,8.78
2017-11-17T06:38:23.192Z,8.74
2017-11-17T06:39:23.206Z,8.78
2017-11-17T06:40:23.222Z,8.78
2017-11-17T06:41:23.237Z,8.87
2017-11-17T06:42:23.252Z,8.88
2017-11-17T06:43:23.270Z,8.81
2017-11-17T06:44:23.284Z,8.87
2017-11-17T06:45:23.300Z,8.78
2017-11-17T06:46:23.316Z,8.74
2017-11-17T06:47:23.330Z,8.76
2017-11-17T06:48:23.349Z,8.81
2017-11-17T06:49:23.361Z,8.82
2017-11-17T06:50:23.393Z,8.81
2017-11-17T06:51:23.393Z,8.82
2017-11-17T06:52:23.411Z,8.81
2017-11-17T06:53:23.425Z,8.71
2017-11-17T06:54:23.439Z,8.73
2017-11-17T06:55:23.453Z,8.76
2017-11-17T06:56:23.479Z,8.71
2017-11-17T06:57:23.487Z,8.67
2017-11-17T06:58:23.508Z,8.76
2017-11-17T06:59:23.518Z,8.71
2017-11-17T07:00:23.533Z,8.73
2017-11-17T07:01:23.549Z,8.74
2017-11-17T07:02:23.564Z,8.38
2017-11-17T07:03:23.583Z,8.16
2017-11-17T07:04:23.596Z,8.15
2017-11-17T07:05:23.610Z,8.31
2017-11-17T07:06:23.627Z,8.42
2017-11-17T07:07:23.644Z,8.48
2017-11-17T07:08:23.657Z,8.52
2017-11-17T07:09:23.672Z,8.36
2017-11-17T07:10:23.690Z,8.45
2017-11-17T07:11:23.702Z,8.38
2017-11-17T07:12:23.719Z,8.19
2017-11-17T07:13:23.734Z,8.08
2017-11-17T07:14:23.758Z,8.19
2017-11-17T07:15:23.766Z,8.15
2017-11-17T07:16:23.778Z,7.98
2017-11-17T07:17:23.799Z,7.82
2017-11-17T07:18:23.812Z,7.63
2017-11-17T07:19:23.825Z,7.72
2017-11-17T07:20:23.843Z,7.79
2017-11-17T07:21:23.856Z,7.85
2017-11-17T07:22:23.872Z,8.05
2017-11-17T07:23:23.889Z,7.61
2017-11-17T07:24:23.903Z,7.56
2017-11-17T07:25:23.920Z,7.77
2017-11-17T07:26:23.934Z,7.88
2017-11-17T07:27:23.948Z,7.82
2017-11-17T07:28:23.976Z,7.83
2017-11-17T07:29:23.978Z,7.93
2017-11-17T07:30:23.995Z,8.01
2017-11-17T07:31:24.009Z,8.01
2017-11-17T07:32:24.025Z,7.83
2017-11-17T07:33:24.041Z,7.83
2017-11-17T07:34:24.059Z,7.97
2017-11-17T07:35:24.070Z,7.91
2017-11-17T07:36:24.087Z,7.91
2017-11-17T07:37:24.101Z,8.08
2017-11-17T07:38:24.120Z,8.13
2017-11-17T07:39:24.133Z,8.20
2017-11-17T07:40:24.147Z,8.24
2017-11-17T07:41:24.165Z,8.19
2017-11-17T07:42:24.178Z,8.08
2017-11-17T07:43:24.193Z,8.34
2017-11-17T07:44:24.212Z,8.27
2017-11-17T07:45:24.225Z,8.18
2017-11-17T07:46:24.242Z,8.20
2017-11-17T07:47:24.254Z,8.16
2017-11-17T07:48:24.277Z,8.46
2017-11-17T07:49:24.286Z,8.49
2017-11-17T07:50:24.319Z,8.34
2017-11-17T07:51:24.321Z,8.46
2017-11-17T07:52:24.334Z,8.44
2017-11-17T07:53:24.351Z,8.56
2017-11-17T07:54:24.367Z,8.71
2017-11-17T07:55:24.379Z,8.71
2017-11-17T07:56:24.398Z,8.82
2017-11-17T07:57:24.410Z,8.45
2017-11-17T07:58:24.425Z,8.37
2017-11-17T07:59:24.445Z,8.18
2017-11-17T08:00:24.459Z,8.20
2017-11-17T08:01:24.476Z,8.20
2017-11-17T08:02:24.490Z,8.20
2017-11-17T08:03:24.505Z,8.01
2017-11-17T08:04:24.519Z,8.13
2017-11-17T08:05:24.537Z,8.12
2017-11-17T08:06:24.554Z,8.20
2017-11-17T08:07:24.568Z,8.58
2017-11-17T08:08:24.582Z,8.74
2017-11-17T08:09:24.600Z,8.79
2017-11-17T08:10:24.617Z,9.04
2017-11-17T08:11:24.636Z,9.23
2017-11-17T08:12:24.647Z,9.37
2017-11-17T08:13:24.664Z,9.39
2017-11-17T08:14:24.692Z,9.31
2017-11-17T08:15:24.699Z,9.10
2017-11-17T08:16:24.712Z,8.89
2017-11-17T08:17:24.727Z,8.36
2017-11-17T08:18:24.743Z,8.30
2017-11-17T08:19:24.757Z,8.16
2017-11-17T08:20:24.778Z,8.18
2017-11-17T08:21:24.790Z,8.19
2017-11-17T08:22:24.807Z,8.38
2017-11-17T08:23:24.823Z,8.56
2017-11-17T08:24:24.839Z,8.71
2017-11-17T08:25:24.854Z,8.78
2017-11-17T08:26:24.870Z,8.79
2017-11-17T08:27:24.885Z,8.53
2017-11-17T08:28:24.902Z,8.46
2017-11-17T08:29:24.923Z,8.64
2017-11-17T08:30:24.937Z,8.74
2017-11-17T08:31:24.951Z,8.71
2017-11-17T08:32:24.966Z,8.74
2017-11-17T08:33:24.994Z,9.21
2017-11-17T08:34:24.999Z,9.40
2017-11-17T08:35:25.016Z,9.61
2017-11-17T08:36:25.030Z,9.76
2017-11-17T08:37:25.047Z,9.62
2017-11-17T08:38:25.062Z,9.64
2017-11-17T08:39:25.080Z,9.58
2017-11-17T08:40:25.102Z,9.41
2017-11-17T08:41:25.109Z,9.39
2017-11-17T08:42:25.128Z,9.61
2017-11-17T08:43:25.142Z,9.97
2017-11-17T08:44:25.159Z,10.25
2017-11-17T08:45:25.180Z,10.40
2017-11-17T08:46:25.194Z,10.26
2017-11-17T08:47:25.207Z,10.25
2017-11-17T08:48:25.224Z,10.57
2017-11-17T08:49:25.241Z,10.93
2017-11-17T08:50:25.256Z,11.14
2017-11-17T08:51:25.273Z,11.19
2017-11-17T08:52:25.288Z,11.40
2017-11-17T08:53:25.307Z,11.57
2017-11-17T08:54:25.322Z,11.51
2017-11-17T08:55:25.341Z,11.75
2017-11-17T08:56:25.359Z,11.91
2017-11-17T08:57:25.375Z,12.02
2017-11-17T08:58:25.391Z,11.84
2017-11-17T08:59:25.407Z,12.07
2017-11-17T09:00:25.424Z,11.86
2017-11-17T09:01:25.449Z,12.10
2017-11-17T09:02:25.461Z,12.15
2017-11-17T09:03:25.478Z,12.13
2017-11-17T09:04:25.494Z,12.25
2017-11-17T09:05:25.511Z,12.37
2017-11-17T09:06:25.536Z,12.36
2017-11-17T09:07:25.546Z,12.32
2017-11-17T09:08:25.564Z,12.09
2017-11-17T09:09:25.580Z,11.84
2017-11-17T09:10:25.598Z,11.77
2017-11-17T09:11:25.615Z,11.81
2017-11-17T09:12:25.636Z,11.68
2017-11-17T09:13:25.652Z,11.62
2017-11-17T09:14:25.669Z,11.65
2017-11-17T09:15:25.684Z,11.80
2017-11-17T09:16:25.702Z,11.81
2017-11-17T09:17:25.726Z,11.80
2017-11-17T09:18:25.736Z,11.95
2017-11-17T09:19:25.754Z,11.94
2017-11-17T09:20:25.773Z,12.13
2017-11-17T09:21:25.790Z,12.09
2017-11-17T09:22:25.808Z,12.07
2017-11-17T09:23:25.822Z,12.00
2017-11-17T09:24:25.841Z,11.97
2017-11-17T09:25:25.860Z,11.84
2017-11-17T09:26:25.874Z,11.40
2017-11-17T09:27:25.892Z,11.50
2017-11-17T09:28:25.920Z,11.52
2017-11-17T09:29:25.930Z,11.40
2017-11-17T09:30:25.946Z,11.45
2017-11-17T09:31:25.962Z,11.48
2017-11-17T09:32:25.978Z,11.44
2017-11-17T09:33:25.994Z,11.47
2017-11-17T09:34:26.012Z,11.70
2017-11-17T09:35:26.027Z,11.63
2017-11-17T09:36:26.046Z,11.69
2017-11-17T09:37:26.072Z,11.81
2017-11-17T09:38:26.080Z,11.80
2017-11-17T09:39:26.106Z,11.75
2017-11-17T09:40:26.114Z,11.83
2017-11-17T09:41:26.132Z,11.90
2017-11-17T09:42:26.148Z,11.95
2017-11-17T09:43:26.165Z,11.81
2017-11-17T09:44:26.184Z,11.84
2017-11-17T09:45:26.198Z,11.91
2017-11-17T09:46:26.216Z,12.02
2017-11-17T09:47:26.238Z,11.95
2017-11-17T09:48:26.251Z,11.81
2017-11-17T09:49:26.274Z,11.95
2017-11-17T09:50:26.286Z,11.83
2017-11-17T09:51:26.301Z,11.78
2017-11-17T09:52:26.318Z,11.81
2017-11-17T09:53:26.335Z,11.75
2017-11-17T09:54:26.353Z,11.57
2017-11-17T09:55:26.372Z,11.69
2017-11-17T09:56:26.386Z,11.70
2017-11-17T09:57:26.402Z,11.43
2017-11-17T09:58:26.421Z,11.41
2017-11-17T09:59:26.440Z,11.23
2017-11-17T10:00:26.457Z,11.37
2017-11-17T10:01:26.486Z,11.44
2017-11-17T10:02:26.492Z,11.52
2017-11-17T10:03:26.505Z,11.50
2017-11-17T10:04:26.524Z,11.29
2017-11-17T10:05:26.540Z,11.47
2017-11-17T10:06:26.558Z,11.47
2017-11-17T10:07:26.574Z,11.43
2017-11-17T10:08:26.590Z,11.52
2017-11-17T10:09:26.607Z,11.70
2017-11-17T10:10:26.623Z,11.90
2017-11-17T10:11:26.639Z,12.13
2017-11-17T10:12:26.677Z,12.25
2017-11-17T10:13:26.675Z,11.90
2017-11-17T10:14:26.693Z,11.68
2017-11-17T10:15:26.708Z,11.81
2017-11-17T10:16:26.732Z,12.02
2017-11-17T10:17:26.744Z,12.32
2017-11-17T10:18:26.761Z,12.57
2017-11-17T10:19:26.780Z,12.68
2017-11-17T10:20:26.797Z,12.94
2017-11-17T10:21:26.813Z,12.97
2017-11-17T10:22:26.833Z,13.08
2017-11-17T10:23:26.856Z,12.93
2017-11-17T10:24:26.868Z,13.15
2017-11-17T10:25:26.886Z,12.93
2017-11-17T10:26:26.900Z,12.95
2017-11-17T10:27:26.922Z,13.00
2017-11-17T10:28:26.939Z,12.90
2017-11-17T10:29:26.955Z,13.16
2017-11-17T10:30:26.973Z,13.15
2017-11-17T10:31:26.993Z,12.76
2017-11-17T10:32:27.008Z,12.50
2017-11-17T10:33:27.027Z,12.17
2017-11-17T10:34:27.043Z,11.72
2017-11-17T10:35:27.061Z,11.88
2017-11-17T10:36:27.082Z,12.22
2017-11-17T10:37:27.100Z,12.32
2017-11-17T10:38:27.115Z,12.47
2017-11-17T10:39:27.132Z,12.61
2017-11-17T10:40:27.196Z,12.64
2017-11-17T10:41:27.176Z,12.62
2017-11-17T10:42:27.188Z,12.79
2017-11-17T10:43:27.209Z,12.80
2017-11-17T10:44:27.224Z,12.86
2017-11-17T10:45:27.242Z,12.79
2017-11-17T10:46:27.259Z,12.91
2017-11-17T10:47:27.276Z,12.95
2017-11-17T10:48:27.293Z,12.97
2017-11-17T10:49:27.313Z,13.12
2017-11-17T10:50:27.331Z,13.11
2017-11-17T10:51:27.352Z,13.15
2017-11-17T10:52:27.368Z,12.97
2017-11-17T10:53:27.398Z,13.00
2017-11-17T10:54:27.402Z,13.33
2017-11-17T10:55:27.420Z,13.46
2017-11-17T10:56:27.438Z,13.25
2017-11-17T10:57:27.627Z,13.18
2017-11-17T10:58:27.498Z,13.31
2017-11-17T10:59:27.494Z,13.37
2017-11-17T11:00:27.513Z,13.41
2017-11-17T11:01:27.529Z,13.59
2017-11-17T11:02:27.545Z,13.60
2017-11-17T11:03:27.566Z,13.33
2017-11-17T11:04:27.582Z,13.56
2017-11-17T11:05:27.612Z,13.59
2017-11-17T11:06:27.621Z,13.52
2017-11-17T11:07:27.641Z,13.71
2017-11-17T11:08:27.658Z,13.50
2017-11-17T11:09:27.677Z,13.37
2017-11-17T11:10:27.694Z,13.30
2017-11-17T11:11:27.712Z,13.27
2017-11-17T11:12:27.730Z,12.94
2017-11-17T11:13:27.750Z,13.09
2017-11-17T11:14:27.768Z,12.95
2017-11-17T11:15:27.786Z,12.86
2017-11-17T11:16:27.805Z,13.04
2017-11-17T11:17:27.822Z,12.83
2017-11-17T11:18:27.842Z,12.67
2017-11-17T11:19:27.858Z,12.75
2017-11-17T11:20:27.877Z,12.57
2017-11-17T11:21:27.919Z,12.46
2017-11-17T11:22:27.914Z,12.70
2017-11-17T11:23:27.931Z,12.72
2017-11-17T11:24:27.951Z,12.87
2017-11-17T11:25:27.970Z,12.65
2017-11-17T11:26:27.992Z,12.72
2017-11-17T11:27:28.005Z,12.58
2017-11-17T11:28:28.021Z,12.60
2017-11-17T11:29:28.041Z,12.61
2017-11-17T11:30:28.059Z,12.61
2017-11-17T11:31:28.075Z,12.79
2017-11-17T11:32:28.095Z,12.87
2017-11-17T11:33:28.112Z,12.55
2017-11-17T11:34:28.131Z,12.54
2017-11-17T11:35:28.149Z,12.29
2017-11-17T11:36:28.167Z,12.22
2017-11-17T11:37:28.183Z,12.28
2017-11-17T11:38:28.203Z,12.10
2017-11-17T11:39:28.219Z,12.00
2017-11-17T11:40:28.238Z,12.09
2017-11-17T11:41:28.258Z,11.84
2017-11-17T11:42:28.272Z,11.91
2017-11-17T11:43:28.296Z,12.04
2017-11-17T11:44:28.309Z,12.17
2017-11-17T11:45:28.343Z,12.31
2017-11-17T11:46:28.347Z,12.17
2017-11-17T11:47:28.364Z,12.24
2017-11-17T11:48:28.386Z,11.95
2017-11-17T11:49:28.398Z,11.83
2017-11-17T11:50:28.420Z,11.83
2017-11-17T11:51:28.447Z,11.95
2017-11-17T11:52:28.451Z,11.83
2017-11-17T11:53:28.475Z,12.02
2017-11-17T11:54:28.501Z,11.99
2017-11-17T11:55:28.509Z,11.99
2017-11-17T11:56:28.524Z,12.25
2017-11-17T11:57:28.543Z,12.39
2017-11-17T11:58:28.559Z,12.29
2017-11-17T11:59:28.578Z,12.20
2017-11-17T12:00:28.596Z,12.24
2017-11-17T12:01:28.618Z,12.12
2017-11-17T12:02:28.670Z,12.07
2017-11-17T12:03:28.651Z,12.15
2017-11-17T12:04:28.672Z,11.99
2017-11-17T12:05:28.690Z,12.18
2017-11-17T12:06:28.700Z,12.10
2017-11-17T12:07:28.721Z,12.03
2017-11-17T12:08:28.740Z,12.15
2017-11-17T12:09:28.756Z,12.17
2017-11-17T12:10:28.770Z,12.22
2017-11-17T12:11:28.788Z,11.94
2017-11-17T12:12:28.810Z,12.12
2017-11-17T12:13:28.827Z,12.09
2017-11-17T12:14:28.842Z,12.18
2017-11-17T12:15:28.863Z,12.10
2017-11-17T12:16:28.878Z,12.18
2017-11-17T12:17:28.895Z,12.12
2017-11-17T12:18:28.913Z,12.00
2017-11-17T12:19:28.933Z,12.09
2017-11-17T12:20:28.947Z,12.15
2017-11-17T12:21:28.982Z,12.10
2017-11-17T12:22:28.981Z,11.94
2017-11-17T12:23:29.000Z,11.97
2017-11-17T12:24:29.088Z,11.99
2017-11-17T12:25:29.035Z,11.84
2017-11-17T12:26:29.060Z,12.09
2017-11-17T12:27:29.069Z,12.07
2017-11-17T12:28:29.091Z,12.21
2017-11-17T12:29:29.106Z,12.24
2017-11-17T12:30:29.122Z,12.03
2017-11-17T12:31:29.139Z,12.09
2017-11-17T12:32:29.156Z,12.09
2017-11-17T12:33:29.174Z,12.00
2017-11-17T12:34:29.193Z,11.95
2017-11-17T12:35:29.212Z,11.99
2017-11-17T12:36:29.225Z,12.21
2017-11-17T12:37:29.253Z,12.17
2017-11-17T12:38:29.259Z,12.17
2017-11-17T12:39:29.280Z,12.20
2017-11-17T12:40:29.302Z,12.21
2017-11-17T12:41:29.315Z,11.90
2017-11-17T12:42:29.332Z,11.95
2017-11-17T12:43:29.355Z,11.99
2017-11-17T12:44:29.366Z,11.84
2017-11-17T12:45:29.383Z,11.97
2017-11-17T12:46:29.400Z,11.97
2017-11-17T12:47:29.417Z,11.94
2017-11-17T12:48:29.436Z,12.04
2017-11-17T12:49:29.454Z,11.81
2017-11-17T12:50:29.470Z,11.72
2017-11-17T12:51:29.489Z,11.83
2017-11-17T12:52:29.508Z,11.84
2017-11-17T12:53:29.524Z,11.80
2017-11-17T12:54:29.540Z,11.59
2017-11-17T12:55:29.558Z,11.80
2017-11-17T12:56:29.576Z,11.87
2017-11-17T12:57:29.592Z,11.63
2017-11-17T12:58:29.613Z,11.62
2017-11-17T12:59:29.634Z,11.55
2017-11-17T13:00:29.653Z,11.83
2017-11-17T13:01:29.662Z,11.91
2017-11-17T13:02:29.689Z,11.75
2017-11-17T13:03:29.696Z,11.66
2017-11-17T13:04:29.713Z,11.70
2017-11-17T13:05:29.730Z,11.63
2017-11-17T13:06:29.747Z,11.66
2017-11-17T13:07:29.763Z,11.55
2017-11-17T13:08:29.781Z,11.52
2017-11-17T13:09:29.809Z,11.66